createdAt,value
2018-07-21T00:01:03.996Z,6.13
2018-07-21T00:06:07.203Z,4.93
2018-07-21T00:11:10.431Z,8.00
2018-07-21T00:16:13.628Z,11.53
2018-07-21T00:21:16.830Z,9.13
2018-07-21T00:26:20.039Z,11.57
2018-07-21T00:31:23.262Z,11.13
2018-07-21T00:36:26.494Z,10.10
2018-07-21T00:41:29.699Z,11.57
2018-07-21T00:46:32.902Z,11.63
2018-07-21T00:51:36.430Z,12.47
2018-07-21T00:56:39.661Z,15.30
2018-07-21T01:01:42.906Z,13.00
2018-07-21T01:06:46.086Z,12.27
2018-07-21T01:11:49.295Z,10.30
2018-07-21T01:16:52.505Z,13.63
2018-07-21T01:21:55.712Z,14.03
2018-07-21T01:26:58.927Z,10.57
2018-07-21T01:32:02.136Z,12.57
2018-07-21T01:37:05.342Z,11.50
2018-07-21T01:42:08.554Z,13.53
2018-07-21T01:47:11.773Z,10.50
2018-07-21T01:52:14.973Z,12.70
2018-07-21T01:57:18.193Z,14.07
2018-07-21T02:02:21.415Z,11.33
2018-07-21T02:07:24.619Z,12.40
2018-07-21T02:12:27.814Z,10.77
2018-07-21T02:17:31.038Z,9.83
2018-07-21T02:22:34.246Z,10.40
2018-07-21T02:27:37.446Z,11.47
2018-07-21T02:32:40.647Z,12.73
2018-07-21T02:37:43.847Z,13.17
2018-07-21T02:42:47.159Z,16.33
2018-07-21T02:47:50.375Z,13.57
2018-07-21T02:52:53.587Z,17.87
2018-07-21T02:57:56.794Z,20.90
2018-07-21T03:03:00.142Z,19.50
2018-07-21T03:08:03.350Z,25.33
2018-07-21T03:13:06.538Z,24.20
2018-07-21T03:18:09.796Z,17.60
2018-07-21T03:23:12.878Z,21.07
2018-07-21T03:28:16.033Z,25.37
2018-07-21T03:33:19.243Z,29.67
2018-07-21T03:38:22.450Z,29.27
2018-07-21T03:43:25.678Z,32.70
2018-07-21T03:48:29.255Z,24.10
2018-07-21T03:53:32.548Z,19.90
2018-07-21T03:58:35.749Z,17.53
2018-07-21T04:03:38.995Z,16.37
2018-07-21T04:08:42.642Z,15.93
2018-07-21T04:13:45.826Z,19.83
2018-07-21T04:18:49.050Z,20.67
2018-07-21T04:23:52.043Z,17.10
2018-07-21T04:28:55.264Z,20.97
2018-07-21T04:33:58.472Z,18.97
2018-07-21T04:39:01.687Z,15.93
2018-07-21T04:44:05.003Z,20.30
2018-07-21T04:49:08.210Z,17.10
2018-07-21T04:54:11.480Z,20.80
2018-07-21T04:59:14.467Z,16.43
2018-07-21T05:04:17.809Z,16.27
2018-07-21T05:09:21.047Z,18.43
2018-07-21T05:14:24.819Z,21.47
2018-07-21T05:19:28.008Z,15.57
2018-07-21T05:24:31.218Z,18.43
2018-07-21T05:29:34.444Z,13.63
2018-07-21T05:34:37.715Z,12.93
2018-07-21T05:39:41.002Z,12.77
2018-07-21T05:44:44.214Z,13.37
2018-07-21T05:49:47.576Z,14.33
2018-07-21T05:54:50.794Z,12.70
2018-07-21T05:59:54.035Z,12.20
2018-07-21T06:04:57.466Z,12.17
2018-07-21T06:10:00.826Z,11.77
2018-07-21T06:15:04.399Z,14.10
2018-07-21T06:20:07.651Z,11.50
2018-07-21T06:25:10.897Z,12.43
2018-07-21T06:30:14.146Z,12.17
2018-07-21T06:35:17.594Z,11.43
2018-07-21T06:40:20.864Z,12.97
2018-07-21T06:45:24.611Z,12.30
2018-07-21T06:50:27.828Z,11.87
2018-07-21T06:55:31.035Z,12.53
2018-07-21T07:00:34.250Z,11.23
2018-07-21T07:05:37.263Z,15.07
2018-07-21T07:10:40.489Z,11.23
2018-07-21T07:15:44.166Z,11.40
2018-07-21T07:20:47.499Z,11.00
2018-07-21T07:25:51.197Z,11.73
2018-07-21T07:30:54.394Z,11.20
2018-07-21T07:35:57.594Z,14.53
2018-07-21T07:41:00.820Z,10.97
2018-07-21T07:46:04.111Z,10.77
2018-07-21T07:51:07.542Z,11.37
2018-07-21T07:56:10.774Z,14.13
2018-07-21T08:01:14.068Z,14.33
2018-07-21T08:06:17.231Z,11.03
2018-07-21T08:11:20.472Z,17.07
2018-07-21T08:16:23.436Z,11.57
2018-07-21T08:21:26.650Z,10.80
2018-07-21T08:26:29.951Z,11.13
2018-07-21T08:31:33.774Z,10.57
2018-07-21T08:36:36.976Z,11.20
2018-07-21T08:41:40.211Z,10.43
2018-07-21T08:46:43.447Z,10.30
2018-07-21T08:51:46.644Z,9.60
2018-07-21T08:56:49.859Z,12.00
2018-07-21T09:01:53.095Z,11.90
2018-07-21T09:06:56.322Z,11.87
2018-07-21T09:11:59.531Z,10.13
2018-07-21T09:17:02.746Z,7.60
2018-07-21T09:22:05.991Z,8.07
2018-07-21T09:27:09.195Z,7.30
2018-07-21T09:32:12.830Z,8.27
2018-07-21T09:37:16.053Z,7.97
2018-07-21T09:42:19.311Z,8.43
2018-07-21T09:47:23.160Z,9.53
2018-07-21T09:52:26.370Z,9.23
2018-07-21T09:57:29.615Z,7.90
2018-07-21T10:02:32.835Z,8.37
2018-07-21T10:07:36.107Z,7.67
2018-07-21T10:12:39.315Z,7.50
2018-07-21T10:17:42.531Z,9.20
2018-07-21T10:22:46.258Z,7.97
2018-07-21T10:27:55.047Z,7.63
2018-07-21T10:32:58.254Z,8.60
2018-07-21T10:38:01.529Z,7.43
2018-07-21T10:43:04.707Z,6.67
2018-07-21T10:48:08.220Z,6.93
2018-07-21T10:53:11.423Z,5.87
2018-07-21T10:58:14.654Z,6.20
2018-07-21T11:03:17.882Z,5.83
2018-07-21T11:08:21.197Z,5.77
2018-07-21T11:13:24.435Z,6.00
2018-07-21T11:18:27.774Z,5.67
2018-07-21T11:23:30.979Z,6.83
2018-07-21T11:28:34.178Z,6.40
2018-07-21T11:33:37.151Z,5.60
2018-07-21T11:38:40.357Z,5.63
2018-07-21T11:43:43.597Z,5.80
2018-07-21T11:48:47.176Z,7.13
2018-07-21T11:53:50.401Z,7.87
2018-07-21T11:58:53.627Z,7.80
2018-07-21T12:03:56.905Z,8.60
2018-07-21T12:09:00.114Z,6.63
2018-07-21T12:14:03.359Z,6.20
2018-07-21T12:19:06.651Z,6.40
2018-07-21T12:24:09.872Z,9.37
2018-07-21T12:29:13.088Z,7.93
2018-07-21T12:34:16.354Z,6.57
2018-07-21T12:39:19.535Z,8.47
2018-07-21T12:44:22.792Z,5.17
2018-07-21T12:49:26.025Z,6.33
2018-07-21T12:54:29.242Z,8.20
2018-07-21T12:59:32.475Z,6.33
2018-07-21T13:04:35.733Z,7.47
2018-07-21T13:09:39.046Z,6.97
2018-07-21T13:14:42.311Z,6.13
2018-07-21T13:19:45.619Z,5.57
2018-07-21T13:24:48.823Z,6.33
2018-07-21T13:29:52.040Z,8.70
2018-07-21T13:34:55.256Z,6.63
2018-07-21T13:39:58.451Z,8.73
2018-07-21T13:45:01.663Z,5.43
2018-07-21T13:50:05.152Z,5.43
2018-07-21T13:55:08.385Z,6.97
2018-07-21T14:00:11.607Z,5.90
2018-07-21T14:05:14.939Z,9.30
2018-07-21T14:10:18.252Z,7.33
2018-07-21T14:15:21.533Z,6.67
2018-07-21T14:20:24.768Z,5.73
2018-07-21T14:25:28.088Z,6.40
2018-07-21T14:30:31.322Z,7.00
2018-07-21T14:35:34.739Z,9.57
2018-07-21T14:40:38.081Z,6.53
2018-07-21T14:45:41.509Z,9.87
2018-07-21T14:50:44.775Z,5.70
2018-07-21T14:55:48.089Z,6.60
2018-07-21T15:00:51.322Z,7.13
2018-07-21T15:05:54.679Z,7.67
2018-07-21T15:10:57.936Z,7.03
2018-07-21T15:16:01.316Z,9.00
2018-07-21T15:21:04.522Z,7.30
2018-07-21T15:26:07.741Z,7.33
2018-07-21T15:31:11.045Z,7.00
2018-07-21T15:36:15.569Z,7.20
2018-07-21T15:41:18.819Z,8.13
2018-07-21T15:46:22.402Z,7.07
2018-07-21T15:51:25.828Z,7.77
2018-07-21T15:56:29.120Z,7.23
2018-07-21T16:01:32.425Z,9.03
2018-07-21T16:06:35.602Z,9.33
2018-07-21T16:11:39.159Z,7.33
2018-07-21T16:16:42.428Z,6.63
2018-07-21T16:21:45.678Z,7.13
2018-07-21T16:26:49.147Z,7.80
2018-07-21T16:31:52.419Z,6.87
2018-07-21T16:36:55.621Z,6.60
2018-07-21T16:41:58.890Z,8.63
2018-07-21T16:47:02.166Z,7.00
2018-07-21T16:52:05.715Z,6.87
2018-07-21T16:57:09.062Z,7.13
2018-07-21T17:02:13.443Z,7.10
2018-07-21T17:07:16.709Z,6.43
2018-07-21T17:12:20.084Z,5.87
2018-07-21T17:17:23.344Z,4.37
2018-07-21T17:22:27.971Z,6.50
2018-07-21T17:27:31.287Z,7.80
2018-07-21T17:32:34.666Z,6.07
2018-07-21T17:37:37.903Z,6.53
2018-07-21T17:42:40.967Z,9.97
2018-07-21T17:47:44.323Z,9.07
2018-07-21T17:52:47.972Z,11.50
2018-07-21T17:57:51.191Z,10.73
2018-07-21T18:02:54.426Z,8.73
2018-07-21T18:07:57.698Z,8.87
2018-07-21T18:13:01.067Z,24.47
2018-07-21T18:18:04.297Z,14.67
2018-07-21T18:23:07.613Z,19.63
2018-07-21T18:28:11.155Z,22.37
2018-07-21T18:33:14.371Z,34.60
2018-07-21T18:38:17.610Z,24.30
2018-07-21T18:43:20.835Z,19.73
2018-07-21T18:48:24.051Z,20.87
2018-07-21T18:53:27.301Z,19.77
2018-07-21T18:58:30.580Z,20.70
2018-07-21T19:03:33.815Z,19.47
2018-07-21T19:08:42.610Z,12.53
2018-07-21T19:13:45.837Z,9.93
2018-07-21T19:18:49.447Z,9.10
2018-07-21T19:23:52.685Z,9.43
2018-07-21T19:28:55.886Z,7.23
2018-07-21T19:33:59.093Z,8.60
2018-07-21T19:39:02.306Z,8.50
2018-07-21T19:44:05.596Z,12.53
2018-07-21T19:49:08.815Z,11.17
2018-07-21T19:54:12.035Z,12.83
2018-07-21T19:59:15.230Z,10.80
2018-07-21T20:04:18.771Z,9.13
2018-07-21T20:09:21.988Z,6.77
2018-07-21T20:14:25.220Z,5.77
2018-07-21T20:19:28.432Z,6.07
2018-07-21T20:24:31.651Z,7.03
2018-07-21T20:29:35.072Z,7.40
2018-07-21T20:34:38.365Z,8.90
2018-07-21T20:39:41.627Z,12.30
2018-07-21T20:44:44.555Z,9.30
2018-07-21T20:49:47.775Z,8.70
2018-07-21T20:54:51.006Z,10.53
2018-07-21T20:59:54.263Z,12.57
2018-07-21T21:04:57.458Z,13.53
2018-07-21T21:10:00.682Z,12.70
2018-07-21T21:15:04.048Z,16.13
2018-07-21T21:20:07.288Z,14.20
2018-07-21T21:25:10.516Z,14.30
2018-07-21T21:30:14.011Z,14.47
2018-07-21T21:35:17.213Z,13.47
2018-07-21T21:40:20.676Z,15.03
2018-07-21T21:45:23.896Z,14.80
2018-07-21T21:50:27.124Z,13.93
2018-07-21T21:55:30.336Z,13.87
2018-07-21T22:00:54.426Z,15.00
2018-07-21T22:05:58.064Z,13.67
2018-07-21T22:11:01.619Z,14.87
2018-07-21T22:16:04.875Z,15.13
2018-07-21T22:21:07.842Z,15.63
2018-07-21T22:26:11.067Z,16.50
2018-07-21T22:31:14.299Z,20.13
2018-07-21T22:36:17.524Z,21.67
2018-07-21T22:41:20.767Z,18.03
2018-07-21T22:46:24.007Z,19.10
2018-07-21T22:51:27.231Z,16.07
2018-07-21T22:56:30.461Z,19.30
2018-07-21T23:01:33.707Z,17.77
2018-07-21T23:06:36.944Z,17.53
2018-07-21T23:11:40.174Z,18.43
2018-07-21T23:16:43.139Z,19.70
2018-07-21T23:21:46.373Z,21.00
2018-07-21T23:26:49.580Z,15.70
2018-07-21T23:31:52.884Z,14.97
2018-07-21T23:36:56.332Z,17.67
2018-07-21T23:41:59.579Z,17.60
2018-07-21T23:47:02.802Z,18.77
2018-07-21T23:52:06.036Z,18.33
2018-07-21T23:57:09.272Z,24.90
